createdAt,value
2022-12-27T00:01:35.259Z,18.17
2022-12-27T00:04:08.980Z,18.42
2022-12-27T00:06:43.197Z,16.30
2022-12-27T00:09:11.613Z,15.80
2022-12-27T00:11:39.320Z,16.38
2022-12-27T00:14:07.636Z,16.60
2022-12-27T00:16:35.236Z,17.55
2022-12-27T00:19:02.940Z,16.42
2022-12-27T00:21:31.711Z,16.77
2022-12-27T00:24:00.514Z,17.42
2022-12-27T00:26:30.276Z,14.10
2022-12-27T00:28:58.749Z,13.18
2022-12-27T00:31:29.808Z,11.68
2022-12-27T00:33:59.602Z,10.30
2022-12-27T00:36:28.653Z,10.15
2022-12-27T00:38:59.428Z,8.60
2022-12-27T00:41:27.249Z,8.68
2022-12-27T00:43:54.772Z,8.27
2022-12-27T00:46:22.500Z,8.05
2022-12-27T00:48:49.619Z,7.15
2022-12-27T00:51:22.558Z,7.72
2022-12-27T00:53:50.934Z,7.18
2022-12-27T00:56:28.421Z,7.80
2022-12-27T00:59:03.271Z,7.93
2022-12-27T01:01:33.650Z,7.38
2022-12-27T01:04:01.954Z,6.68
2022-12-27T01:06:33.352Z,6.72
2022-12-27T01:09:01.681Z,5.70
2022-12-27T01:11:29.361Z,6.05
2022-12-27T01:14:00.388Z,5.30
2022-12-27T01:16:29.666Z,5.93
2022-12-27T01:18:58.533Z,4.50
2022-12-27T01:21:27.563Z,5.65
2022-12-27T01:23:55.606Z,6.07
2022-12-27T01:26:24.456Z,3.75
2022-12-27T01:28:53.535Z,3.60
2022-12-27T01:31:27.959Z,3.22
2022-12-27T01:33:58.834Z,4.90
2022-12-27T01:36:28.804Z,11.25
2022-12-27T01:38:56.760Z,9.10
2022-12-27T01:41:52.782Z,15.88
2022-12-27T01:44:47.274Z,51.08
2022-12-27T01:47:26.667Z,9.15
2022-12-27T01:50:24.168Z,7.57
2022-12-27T01:53:23.385Z,8.45
2022-12-27T01:56:05.307Z,9.32
2022-12-27T01:58:35.765Z,7.97
2022-12-27T02:03:56.789Z,4.82
2022-12-27T02:06:26.023Z,11.25
2022-12-27T02:09:28.457Z,10.98
2022-12-27T02:11:58.720Z,8.95
2022-12-27T02:14:35.633Z,13.43
2022-12-27T02:17:11.235Z,11.70
2022-12-27T02:20:09.411Z,11.45
2022-12-27T02:23:26.242Z,8.55
2022-12-27T02:26:17.778Z,6.88
2022-12-27T02:29:13.643Z,3.53
2022-12-27T02:31:56.605Z,2.92
2022-12-27T02:34:29.735Z,6.20
2022-12-27T02:37:04.316Z,2.92
2022-12-27T02:39:37.115Z,3.70
2022-12-27T02:42:24.762Z,6.43
2022-12-27T02:45:11.005Z,12.38
2022-12-27T02:47:57.775Z,10.27
2022-12-27T02:50:55.554Z,7.28
2022-12-27T02:53:43.096Z,7.13
2022-12-27T02:56:47.573Z,6.53
2022-12-27T02:59:24.664Z,7.45
2022-12-27T03:02:41.049Z,4.80
2022-12-27T03:05:30.951Z,3.90
2022-12-27T03:08:06.808Z,7.65
2022-12-27T03:11:07.485Z,3.03
2022-12-27T03:14:06.186Z,7.60
2022-12-27T03:16:43.534Z,3.72
2022-12-27T03:19:41.220Z,3.63
2022-12-27T03:22:30.158Z,4.53
2022-12-27T03:25:16.979Z,5.82
2022-12-27T03:28:08.702Z,5.10
2022-12-27T03:30:57.698Z,2.72
2022-12-27T03:33:27.986Z,2.22
2022-12-27T03:36:15.967Z,2.42
2022-12-27T03:39:06.756Z,5.43
2022-12-27T03:41:59.200Z,4.10
2022-12-27T03:44:27.764Z,5.43
2022-12-27T03:47:01.472Z,5.15
2022-12-27T03:49:44.362Z,4.15
2022-12-27T03:52:20.487Z,4.33
2022-12-27T03:54:51.397Z,4.20
2022-12-27T03:57:24.491Z,4.25
2022-12-27T03:59:51.807Z,6.00
2022-12-27T04:02:19.469Z,5.13
2022-12-27T04:04:47.388Z,3.95
2022-12-27T04:07:14.995Z,4.82
2022-12-27T04:10:01.499Z,2.88
2022-12-27T04:12:47.461Z,12.43
2022-12-27T04:15:34.768Z,37.70
2022-12-27T04:39:38.606Z,3.40
2022-12-27T04:42:24.973Z,2.58
2022-12-27T04:45:15.124Z,4.70
2022-12-27T04:48:01.247Z,4.13
2022-12-27T04:50:51.299Z,4.28
2022-12-27T04:53:39.314Z,2.72
2022-12-27T04:56:20.152Z,3.45
2022-12-27T04:59:06.951Z,7.60
2022-12-27T05:01:53.194Z,3.00
2022-12-27T05:04:22.584Z,4.22
2022-12-27T05:06:49.983Z,2.78
2022-12-27T05:09:35.992Z,2.70
2022-12-27T05:12:43.914Z,2.70
2022-12-27T05:15:13.276Z,2.75
2022-12-27T05:17:40.651Z,2.35
2022-12-27T05:20:08.697Z,3.17
2022-12-27T05:23:00.712Z,2.42
2022-12-27T05:25:40.305Z,2.10
2022-12-27T05:28:10.787Z,2.55
2022-12-27T05:30:42.126Z,2.40
2022-12-27T05:33:09.839Z,2.08
2022-12-27T05:35:37.923Z,1.98
2022-12-27T05:38:06.798Z,2.63
2022-12-27T05:40:34.758Z,3.78
2022-12-27T05:43:03.443Z,2.15
2022-12-27T05:45:33.306Z,2.17
2022-12-27T05:48:02.114Z,2.08
2022-12-27T05:50:36.637Z,2.40
2022-12-27T05:53:06.118Z,2.45
2022-12-27T05:55:35.543Z,2.10
2022-12-27T05:58:03.040Z,2.22
2022-12-27T06:00:32.470Z,2.33
2022-12-27T06:02:59.640Z,2.50
2022-12-27T06:05:28.194Z,2.10
2022-12-27T06:07:55.317Z,2.35
2022-12-27T06:10:22.834Z,2.28
2022-12-27T06:12:50.206Z,1.95
2022-12-27T06:15:17.732Z,2.10
2022-12-27T06:17:46.106Z,2.35
2022-12-27T06:20:20.079Z,2.20
2022-12-27T06:22:47.272Z,2.58
2022-12-27T06:25:15.469Z,2.60
2022-12-27T06:27:48.770Z,2.55
2022-12-27T06:30:16.479Z,2.30
2022-12-27T06:32:43.729Z,3.28
2022-12-27T06:35:12.286Z,2.30
2022-12-27T06:37:39.667Z,2.30
2022-12-27T06:40:08.578Z,2.63
2022-12-27T06:42:36.128Z,2.20
2022-12-27T06:45:03.681Z,2.13
2022-12-27T06:47:32.326Z,2.45
2022-12-27T06:49:59.520Z,2.05
2022-12-27T06:52:27.029Z,2.25
2022-12-27T06:54:54.362Z,2.72
2022-12-27T06:57:21.878Z,2.47
2022-12-27T06:59:55.907Z,3.63
2022-12-27T07:02:23.078Z,2.78
2022-12-27T07:04:50.433Z,2.08
2022-12-27T07:07:18.019Z,2.17
2022-12-27T07:09:57.601Z,2.38
2022-12-27T07:12:25.068Z,2.13
2022-12-27T07:14:52.511Z,3.10
2022-12-27T07:17:20.177Z,3.53
2022-12-27T07:19:53.632Z,2.30
2022-12-27T07:24:51.126Z,2.42
2022-12-27T07:27:19.896Z,2.47
2022-12-27T07:29:47.534Z,6.95
2022-12-27T07:32:14.957Z,6.38
2022-12-27T07:34:42.436Z,7.97
2022-12-27T07:37:10.827Z,9.18
2022-12-27T07:39:39.206Z,15.05
2022-12-27T07:42:08.560Z,11.40
2022-12-27T07:44:36.446Z,9.40
2022-12-27T07:47:03.873Z,9.65
2022-12-27T07:49:32.205Z,10.38
2022-12-27T07:51:59.767Z,8.18
2022-12-27T07:54:27.102Z,8.45
2022-12-27T07:56:54.584Z,8.18
2022-12-27T07:59:23.081Z,5.60
2022-12-27T08:02:05.558Z,4.78
2022-12-27T08:04:37.603Z,5.30
2022-12-27T08:07:08.289Z,3.72
2022-12-27T08:09:38.241Z,5.93
2022-12-27T08:12:05.989Z,6.00
2022-12-27T08:14:33.424Z,3.75
2022-12-27T08:17:29.993Z,3.75
2022-12-27T08:19:57.670Z,6.30
2022-12-27T08:22:26.983Z,4.72
2022-12-27T08:24:56.246Z,3.20
2022-12-27T08:27:25.383Z,3.58
2022-12-27T08:29:52.961Z,4.93
2022-12-27T08:32:26.720Z,4.13
2022-12-27T08:34:55.078Z,4.63
2022-12-27T08:37:22.521Z,6.03
2022-12-27T08:39:49.954Z,5.00
2022-12-27T08:42:17.443Z,8.05
2022-12-27T08:44:44.884Z,5.43
2022-12-27T08:47:12.263Z,5.03
2022-12-27T08:49:39.751Z,5.43
2022-12-27T08:52:08.276Z,4.03
2022-12-27T08:54:36.771Z,4.97
2022-12-27T08:57:04.556Z,3.70
2022-12-27T08:59:31.640Z,3.95
2022-12-27T09:01:58.822Z,6.32
2022-12-27T09:04:28.139Z,3.53
2022-12-27T09:06:57.869Z,18.00
2022-12-27T09:09:27.136Z,8.68
2022-12-27T09:11:54.775Z,4.35
2022-12-27T09:14:23.224Z,6.15
2022-12-27T09:16:56.896Z,2.70
2022-12-27T09:19:25.188Z,11.73
2022-12-27T09:21:52.519Z,5.40
2022-12-27T09:24:20.059Z,15.05
2022-12-27T09:26:59.760Z,4.30
2022-12-27T09:29:26.842Z,3.30
2022-12-27T09:31:55.139Z,5.80
2022-12-27T09:34:23.730Z,6.20
2022-12-27T09:36:56.812Z,2.95
2022-12-27T09:39:24.270Z,5.78
2022-12-27T09:42:48.645Z,3.10
2022-12-27T09:45:18.481Z,6.10
2022-12-27T09:48:12.257Z,5.10
2022-12-27T09:51:02.378Z,3.20
2022-12-27T09:53:45.369Z,5.82
2022-12-27T09:56:16.216Z,4.93
2022-12-27T09:58:59.025Z,5.82
2022-12-27T10:01:36.591Z,3.78
2022-12-27T10:04:09.019Z,5.22
2022-12-27T10:06:51.846Z,2.10
2022-12-27T10:09:29.491Z,5.38
2022-12-27T10:12:18.048Z,7.88
2022-12-27T10:15:00.123Z,4.68
2022-12-27T10:17:37.295Z,1.98
2022-12-27T10:20:23.797Z,5.35
2022-12-27T10:23:05.889Z,2.95
2022-12-27T10:25:35.823Z,1.98
2022-12-27T10:28:14.768Z,6.32
2022-12-27T10:30:43.592Z,4.70
2022-12-27T10:33:31.912Z,2.88
2022-12-27T10:35:59.344Z,6.05
2022-12-27T10:38:33.874Z,8.27
2022-12-27T10:41:30.230Z,2.97
2022-12-27T10:43:57.663Z,5.63
2022-12-27T10:46:32.725Z,6.00
2022-12-27T10:49:20.651Z,6.95
2022-12-27T10:51:49.556Z,7.40
2022-12-27T10:54:27.462Z,7.60
2022-12-27T10:56:56.616Z,5.45
2022-12-27T10:59:27.411Z,6.88
2022-12-27T11:02:00.813Z,4.30
2022-12-27T11:04:30.695Z,6.38
2022-12-27T11:07:04.450Z,2.42
2022-12-27T11:09:35.276Z,5.90
2022-12-27T11:12:17.343Z,10.02
2022-12-27T11:15:06.603Z,4.15
2022-12-27T11:17:37.756Z,6.10
2022-12-27T11:20:23.060Z,2.63
2022-12-27T11:23:13.833Z,2.88
2022-12-27T11:25:57.071Z,2.30
2022-12-27T11:28:39.887Z,5.75
2022-12-27T11:31:13.397Z,2.53
2022-12-27T11:33:53.412Z,3.88
2022-12-27T11:36:27.931Z,3.17
2022-12-27T11:38:56.314Z,2.30
2022-12-27T11:41:55.048Z,7.13
2022-12-27T11:44:34.292Z,4.75
2022-12-27T11:47:38.071Z,2.40
2022-12-27T11:50:42.169Z,2.90
2022-12-27T11:53:18.634Z,3.75
2022-12-27T11:56:20.366Z,4.78
2022-12-27T11:59:07.464Z,3.75
2022-12-27T12:01:40.517Z,2.33
2022-12-27T12:04:43.224Z,3.92
2022-12-27T12:07:42.984Z,3.47
2022-12-27T12:10:46.125Z,6.85
2022-12-27T12:13:50.631Z,5.40
2022-12-27T12:16:33.304Z,9.07
2022-12-27T12:19:07.900Z,7.25
2022-12-27T12:22:10.413Z,4.15
2022-12-27T12:25:03.315Z,2.15
2022-12-27T12:27:47.866Z,5.22
2022-12-27T12:30:41.651Z,3.72
2022-12-27T12:33:38.792Z,5.97
2022-12-27T12:36:34.867Z,4.95
2022-12-27T12:39:16.334Z,8.00
2022-12-27T12:42:05.357Z,5.05
2022-12-27T12:44:44.279Z,6.68
2022-12-27T12:47:18.416Z,4.65
2022-12-27T12:50:13.168Z,5.38
2022-12-27T12:53:12.435Z,5.70
2022-12-27T12:56:01.438Z,2.40
2022-12-27T12:58:55.974Z,3.10
2022-12-27T13:01:55.534Z,2.70
2022-12-27T13:04:34.650Z,3.00
2022-12-27T13:07:07.315Z,3.53
2022-12-27T13:10:09.624Z,4.23
2022-12-27T13:13:00.164Z,6.07
2022-12-27T13:15:47.219Z,4.18
2022-12-27T13:18:52.700Z,3.80
2022-12-27T13:21:43.472Z,4.55
2022-12-27T13:24:11.841Z,3.15
2022-12-27T13:26:53.998Z,4.95
2022-12-27T13:29:36.047Z,4.60
2022-12-27T13:32:28.930Z,4.15
2022-12-27T13:35:21.890Z,3.58
2022-12-27T13:38:07.790Z,3.08
2022-12-27T13:40:40.258Z,7.43
2022-12-27T13:43:27.625Z,6.55
2022-12-27T13:46:19.697Z,7.70
2022-12-27T13:49:19.367Z,6.72
2022-12-27T13:51:53.303Z,7.68
2022-12-27T13:54:50.868Z,5.18
2022-12-27T13:57:26.021Z,7.57
2022-12-27T14:00:09.366Z,11.25
2022-12-27T14:03:19.417Z,12.77
2022-12-27T14:06:03.169Z,4.35
2022-12-27T14:08:51.948Z,10.23
2022-12-27T14:11:30.720Z,7.25
2022-12-27T14:13:59.426Z,7.70
2022-12-27T14:16:43.179Z,9.88
2022-12-27T14:22:18.706Z,6.47
2022-12-27T14:24:52.063Z,10.75
2022-12-27T14:27:58.915Z,7.20
2022-12-27T14:31:02.218Z,3.45
2022-12-27T14:33:54.391Z,6.03
2022-12-27T14:36:55.469Z,3.80
2022-12-27T14:40:01.171Z,12.25
2022-12-27T14:42:31.026Z,7.35
2022-12-27T14:45:25.997Z,8.68
2022-12-27T14:48:11.497Z,8.32
2022-12-27T14:51:58.811Z,6.50
2022-12-27T14:54:31.046Z,6.90
2022-12-27T14:57:22.601Z,5.22
2022-12-27T14:59:55.448Z,3.55
2022-12-27T15:03:13.312Z,7.32
2022-12-27T15:06:07.093Z,3.22
2022-12-27T15:09:05.412Z,4.43
2022-12-27T15:11:50.311Z,7.47
2022-12-27T15:14:32.733Z,7.30
2022-12-27T15:18:00.639Z,7.05
2022-12-27T15:20:44.128Z,5.50
2022-12-27T15:23:47.773Z,7.53
2022-12-27T15:26:32.810Z,9.07
2022-12-27T15:29:24.349Z,11.45
2022-12-27T15:32:01.204Z,7.35
2022-12-27T15:34:57.143Z,7.13
2022-12-27T15:37:51.500Z,6.57
2022-12-27T15:40:34.380Z,5.50
2022-12-27T15:43:27.564Z,5.93
2022-12-27T15:46:12.027Z,9.27
2022-12-27T15:49:27.350Z,18.70
2022-12-27T15:52:14.166Z,10.60
2022-12-27T15:55:15.604Z,19.00
2022-12-27T15:57:57.733Z,11.07
2022-12-27T16:00:25.299Z,14.70
2022-12-27T16:02:54.374Z,6.15
2022-12-27T16:05:22.631Z,20.70
2022-12-27T16:07:59.304Z,15.98
2022-12-27T16:10:41.326Z,15.77
2022-12-27T16:13:11.547Z,8.90
2022-12-27T16:15:54.371Z,8.25
2022-12-27T16:18:28.921Z,7.70
2022-12-27T16:21:20.921Z,8.10
2022-12-27T16:23:51.464Z,6.43
2022-12-27T16:26:29.192Z,7.80
2022-12-27T16:29:06.211Z,9.10
2022-12-27T16:31:45.839Z,6.47
2022-12-27T16:34:30.829Z,10.07
2022-12-27T16:37:01.185Z,6.97
2022-12-27T16:39:45.364Z,8.23
2022-12-27T16:42:13.634Z,5.47
2022-12-27T16:45:03.193Z,6.25
2022-12-27T16:48:02.358Z,9.20
2022-12-27T16:50:45.209Z,6.68
2022-12-27T16:53:32.960Z,7.17
2022-12-27T16:56:31.507Z,5.88
2022-12-27T16:58:58.743Z,6.20
2022-12-27T17:01:26.451Z,6.88
2022-12-27T17:03:56.687Z,7.75
2022-12-27T17:06:33.657Z,7.03
2022-12-27T17:09:11.781Z,8.13
2022-12-27T17:11:47.896Z,6.75
2022-12-27T17:14:32.010Z,9.23
2022-12-27T17:17:14.772Z,9.60
2022-12-27T17:20:00.378Z,9.48
2022-12-27T17:22:35.042Z,12.85
2022-12-27T17:25:05.025Z,11.70
2022-12-27T17:27:37.569Z,9.75
2022-12-27T17:30:24.257Z,7.00
2022-12-27T17:33:17.915Z,8.60
2022-12-27T17:36:10.224Z,8.38
2022-12-27T17:39:06.479Z,7.03
2022-12-27T17:42:04.223Z,6.25
2022-12-27T17:44:58.499Z,5.82
2022-12-27T17:47:41.957Z,6.82
2022-12-27T17:50:16.707Z,7.53
2022-12-27T17:53:32.969Z,6.68
2022-12-27T17:56:30.959Z,8.32
2022-12-27T17:59:23.800Z,7.03
2022-12-27T18:01:54.804Z,8.00
2022-12-27T18:04:35.063Z,8.77
2022-12-27T18:07:05.667Z,7.43
2022-12-27T18:09:51.261Z,9.82
2022-12-27T18:12:31.339Z,10.73
2022-12-27T18:15:15.654Z,12.38
2022-12-27T18:17:56.553Z,12.65
2022-12-27T18:20:29.341Z,16.02
2022-12-27T18:23:03.545Z,11.63
2022-12-27T18:25:37.956Z,9.23
2022-12-27T18:28:09.660Z,8.75
2022-12-27T18:30:43.598Z,10.30
2022-12-27T18:33:15.788Z,7.30
2022-12-27T18:35:52.028Z,7.07
2022-12-27T18:38:47.441Z,7.25
2022-12-27T18:41:21.576Z,6.97
2022-12-27T18:44:00.149Z,7.80
2022-12-27T18:46:32.668Z,10.75
2022-12-27T18:49:01.241Z,15.00
2022-12-27T18:51:38.327Z,16.90
2022-12-27T18:54:29.845Z,15.57
2022-12-27T18:57:07.262Z,14.55
2022-12-27T18:59:36.641Z,11.20
2022-12-27T19:02:35.323Z,12.93
2022-12-27T19:05:39.179Z,15.27
2022-12-27T19:08:17.690Z,13.32
2022-12-27T19:10:52.211Z,12.88
2022-12-27T19:13:28.196Z,11.80
2022-12-27T19:16:02.135Z,12.18
2022-12-27T19:18:38.633Z,12.93
2022-12-27T19:21:15.455Z,11.30
2022-12-27T19:23:49.446Z,15.30
2022-12-27T19:26:17.248Z,21.70
2022-12-27T19:28:46.508Z,12.18
2022-12-27T19:31:22.205Z,9.88
2022-12-27T19:33:55.141Z,9.77
2022-12-27T19:36:34.720Z,10.60
2022-12-27T19:39:02.418Z,9.27
2022-12-27T19:41:32.107Z,8.50
2022-12-27T19:44:00.170Z,9.90
2022-12-27T19:46:31.076Z,9.93
2022-12-27T19:51:46.312Z,10.10
2022-12-27T19:54:17.560Z,11.23
2022-12-27T19:56:45.523Z,11.85
2022-12-27T19:59:19.655Z,11.15
2022-12-27T20:01:47.184Z,11.77
2022-12-27T20:04:16.627Z,11.65
2022-12-27T20:06:48.831Z,12.05
2022-12-27T20:09:19.315Z,12.00
2022-12-27T20:11:48.756Z,10.68
2022-12-27T20:14:18.620Z,8.80
2022-12-27T20:16:48.149Z,8.93
2022-12-27T20:19:18.713Z,9.27
2022-12-27T20:21:47.474Z,9.40
2022-12-27T20:24:17.294Z,10.05
2022-12-27T20:26:47.356Z,11.68
2022-12-27T20:29:15.935Z,14.05
2022-12-27T20:31:48.876Z,15.98
2022-12-27T20:34:16.701Z,15.20
2022-12-27T20:36:45.021Z,17.25
2022-12-27T20:39:12.503Z,20.63
2022-12-27T20:41:41.905Z,17.35
2022-12-27T20:44:09.698Z,14.23
2022-12-27T20:46:40.633Z,12.07
2022-12-27T20:49:10.107Z,10.43
2022-12-27T20:51:37.912Z,10.15
2022-12-27T20:54:05.667Z,10.13
2022-12-27T20:56:35.476Z,10.02
2022-12-27T20:59:04.391Z,9.07
2022-12-27T21:01:32.257Z,9.32
2022-12-27T21:03:59.974Z,10.40
2022-12-27T21:06:33.467Z,9.30
2022-12-27T21:11:42.031Z,9.10
2022-12-27T21:14:12.603Z,8.98
2022-12-27T21:16:40.558Z,8.40
2022-12-27T21:19:08.768Z,7.93
2022-12-27T21:21:38.760Z,7.47
2022-12-27T21:24:08.368Z,8.07
2022-12-27T21:26:38.299Z,7.65
2022-12-27T21:29:12.559Z,8.32
2022-12-27T21:31:39.872Z,8.05
2022-12-27T21:34:08.218Z,7.60
2022-12-27T21:36:36.954Z,9.88
2022-12-27T21:39:06.548Z,9.15
2022-12-27T21:41:38.134Z,8.07
2022-12-27T21:44:05.889Z,6.70
2022-12-27T21:46:37.965Z,6.57
2022-12-27T21:49:13.483Z,6.50
2022-12-27T21:51:43.364Z,6.72
2022-12-27T21:54:14.152Z,6.93
2022-12-27T21:56:42.624Z,7.13
2022-12-27T21:59:12.284Z,6.68
2022-12-27T22:01:50.022Z,6.18
2022-12-27T22:04:21.667Z,8.75
2022-12-27T22:06:49.343Z,7.25
2022-12-27T22:09:17.503Z,6.40
2022-12-27T22:11:46.979Z,6.78
2022-12-27T22:14:14.143Z,7.15
2022-12-27T22:16:41.726Z,6.15
2022-12-27T22:19:11.249Z,6.38
2022-12-27T22:21:39.790Z,7.00
2022-12-27T22:24:07.647Z,6.63
2022-12-27T22:26:37.641Z,7.25
2022-12-27T22:29:06.447Z,5.60
2022-12-27T22:31:38.279Z,6.18
2022-12-27T22:34:06.342Z,6.30
2022-12-27T22:36:34.664Z,6.22
2022-12-27T22:39:02.967Z,6.15
2022-12-27T22:41:33.276Z,6.13
2022-12-27T22:44:03.112Z,5.68
2022-12-27T22:46:58.630Z,5.28
2022-12-27T22:49:19.955Z,5.75
2022-12-27T22:51:47.455Z,5.63
2022-12-27T22:54:14.987Z,6.68
2022-12-27T22:56:43.274Z,7.10
2022-12-27T22:59:14.218Z,7.53
2022-12-27T23:01:44.083Z,5.60
2022-12-27T23:04:13.641Z,5.70
2022-12-27T23:06:41.760Z,5.63
2022-12-27T23:09:10.495Z,6.18
2022-12-27T23:11:41.240Z,6.15
2022-12-27T23:14:16.729Z,5.93
2022-12-27T23:16:48.512Z,5.75
2022-12-27T23:19:18.688Z,6.47
2022-12-27T23:21:46.024Z,6.47
2022-12-27T23:24:14.264Z,5.60
2022-12-27T23:26:42.688Z,4.82
2022-12-27T23:29:14.212Z,5.50
2022-12-27T23:31:54.859Z,5.13
2022-12-27T23:34:28.645Z,5.05
2022-12-27T23:36:59.408Z,5.20
2022-12-27T23:39:27.132Z,4.65
2022-12-27T23:41:55.109Z,4.32
2022-12-27T23:44:32.907Z,4.63
2022-12-27T23:47:03.670Z,5.45
2022-12-27T23:49:31.419Z,4.93
2022-12-27T23:51:58.801Z,5.70
2022-12-27T23:54:26.272Z,4.90
2022-12-27T23:56:53.804Z,4.40
2022-12-27T23:59:21.316Z,5.07
